sensor_id;sensor_type;location;lat;lon;timestamp;P1;durP1;ratioP1;P2;durP2;ratioP2
51925;SDS011;37952;51.938;15.480;2022-10-31T00:01:33;8.40;;;6.20;;
51925;SDS011;37952;51.938;15.480;2022-10-31T00:04:40;10.40;;;5.10;;
51925;SDS011;37952;51.938;15.480;2022-10-31T00:07:43;10.70;;;6.00;;
51925;SDS011;37952;51.938;15.480;2022-10-31T00:10:46;6.50;;;5.40;;
51925;SDS011;37952;51.938;15.480;2022-10-31T00:13:49;9.40;;;5.60;;
51925;SDS011;37952;51.938;15.480;2022-10-31T00:16:52;12.90;;;6.70;;
51925;SDS011;37952;51.938;15.480;2022-10-31T00:19:55;11.00;;;6.40;;
51925;SDS011;37952;51.938;15.480;2022-10-31T00:22:59;7.50;;;5.20;;
51925;SDS011;37952;51.938;15.480;2022-10-31T00:26:04;8.50;;;5.80;;
51925;SDS011;37952;51.938;15.480;2022-10-31T00:29:07;9.50;;;5.90;;
51925;SDS011;37952;51.938;15.480;2022-10-31T00:32:10;10.10;;;5.80;;
51925;SDS011;37952;51.938;15.480;2022-10-31T00:35:13;9.00;;;6.10;;
51925;SDS011;37952;51.938;15.480;2022-10-31T00:38:16;11.10;;;6.00;;
51925;SDS011;37952;51.938;15.480;2022-10-31T00:41:19;10.60;;;6.20;;
51925;SDS011;37952;51.938;15.480;2022-10-31T00:44:22;6.90;;;5.40;;
51925;SDS011;37952;51.938;15.480;2022-10-31T00:47:25;10.90;;;6.30;;
51925;SDS011;37952;51.938;15.480;2022-10-31T00:50:28;10.80;;;5.90;;
51925;SDS011;37952;51.938;15.480;2022-10-31T00:53:31;8.10;;;6.20;;
51925;SDS011;37952;51.938;15.480;2022-10-31T00:56:34;10.90;;;6.40;;
51925;SDS011;37952;51.938;15.480;2022-10-31T00:59:37;9.10;;;6.00;;
51925;SDS011;37952;51.938;15.480;2022-10-31T01:02:40;12.30;;;6.60;;
51925;SDS011;37952;51.938;15.480;2022-10-31T01:05:43;9.30;;;6.60;;
51925;SDS011;37952;51.938;15.480;2022-10-31T01:08:46;8.50;;;6.40;;
51925;SDS011;37952;51.938;15.480;2022-10-31T01:11:50;6.70;;;5.60;;
51925;SDS011;37952;51.938;15.480;2022-10-31T01:14:53;7.30;;;5.40;;
51925;SDS011;37952;51.938;15.480;2022-10-31T01:17:56;14.20;;;6.30;;
51925;SDS011;37952;51.938;15.480;2022-10-31T01:21:01;10.00;;;6.40;;
51925;SDS011;37952;51.938;15.480;2022-10-31T01:24:10;7.30;;;5.80;;
51925;SDS011;37952;51.938;15.480;2022-10-31T01:27:13;11.60;;;6.10;;
51925;SDS011;37952;51.938;15.480;2022-10-31T01:30:16;10.20;;;6.40;;
51925;SDS011;37952;51.938;15.480;2022-10-31T01:33:19;8.00;;;6.10;;
51925;SDS011;37952;51.938;15.480;2022-10-31T01:36:29;9.70;;;6.20;;
51925;SDS011;37952;51.938;15.480;2022-10-31T01:39:34;15.80;;;7.30;;
51925;SDS011;37952;51.938;15.480;2022-10-31T01:42:37;9.90;;;6.30;;
51925;SDS011;37952;51.938;15.480;2022-10-31T01:45:40;9.30;;;5.80;;
51925;SDS011;37952;51.938;15.480;2022-10-31T01:48:46;7.20;;;5.70;;
51925;SDS011;37952;51.938;15.480;2022-10-31T01:51:52;7.20;;;5.70;;
51925;SDS011;37952;51.938;15.480;2022-10-31T01:55:03;9.80;;;6.60;;
51925;SDS011;37952;51.938;15.480;2022-10-31T01:58:31;6.30;;;5.80;;
51925;SDS011;37952;51.938;15.480;2022-10-31T02:01:37;7.50;;;5.60;;
51925;SDS011;37952;51.938;15.480;2022-10-31T02:04:41;9.90;;;5.50;;
51925;SDS011;37952;51.938;15.480;2022-10-31T02:07:53;9.20;;;5.60;;
51925;SDS011;37952;51.938;15.480;2022-10-31T02:11:01;9.80;;;5.90;;
51925;SDS011;37952;51.938;15.480;2022-10-31T02:14:09;6.20;;;5.60;;
51925;SDS011;37952;51.938;15.480;2022-10-31T02:17:14;13.60;;;5.90;;
51925;SDS011;37952;51.938;15.480;2022-10-31T02:20:18;8.30;;;5.60;;
51925;SDS011;37952;51.938;15.480;2022-10-31T02:30:37;8.20;;;6.10;;
51925;SDS011;37952;51.938;15.480;2022-10-31T02:33:51;7.00;;;6.30;;
51925;SDS011;37952;51.938;15.480;2022-10-31T02:37:01;9.00;;;6.50;;
51925;SDS011;37952;51.938;15.480;2022-10-31T02:40:30;8.00;;;5.60;;
51925;SDS011;37952;51.938;15.480;2022-10-31T02:44:00;6.40;;;5.80;;
51925;SDS011;37952;51.938;15.480;2022-10-31T02:47:13;5.70;;;5.30;;
51925;SDS011;37952;51.938;15.480;2022-10-31T02:50:22;10.60;;;5.40;;
51925;SDS011;37952;51.938;15.480;2022-10-31T02:53:34;10.00;;;6.70;;
51925;SDS011;37952;51.938;15.480;2022-10-31T02:56:38;18.40;;;6.60;;
51925;SDS011;37952;51.938;15.480;2022-10-31T02:59:44;7.10;;;6.40;;
51925;SDS011;37952;51.938;15.480;2022-10-31T03:06:14;7.20;;;6.00;;
51925;SDS011;37952;51.938;15.480;2022-10-31T03:09:32;7.90;;;6.00;;
51925;SDS011;37952;51.938;15.480;2022-10-31T03:12:43;15.50;;;7.40;;
51925;SDS011;37952;51.938;15.480;2022-10-31T03:19:25;6.40;;;5.80;;
51925;SDS011;37952;51.938;15.480;2022-10-31T03:22:39;9.30;;;6.60;;
51925;SDS011;37952;51.938;15.480;2022-10-31T03:25:45;9.70;;;7.30;;
51925;SDS011;37952;51.938;15.480;2022-10-31T03:31:57;7.40;;;6.30;;
51925;SDS011;37952;51.938;15.480;2022-10-31T03:35:04;6.70;;;5.80;;
51925;SDS011;37952;51.938;15.480;2022-10-31T03:38:10;7.40;;;6.50;;
51925;SDS011;37952;51.938;15.480;2022-10-31T03:41:16;10.30;;;6.10;;
51925;SDS011;37952;51.938;15.480;2022-10-31T03:44:24;8.60;;;6.10;;
51925;SDS011;37952;51.938;15.480;2022-10-31T03:47:31;8.80;;;6.70;;
51925;SDS011;37952;51.938;15.480;2022-10-31T03:50:58;7.40;;;6.20;;
51925;SDS011;37952;51.938;15.480;2022-10-31T03:57:52;9.50;;;7.10;;
51925;SDS011;37952;51.938;15.480;2022-10-31T04:01:08;13.40;;;7.20;;
51925;SDS011;37952;51.938;15.480;2022-10-31T04:04:14;10.10;;;6.70;;
51925;SDS011;37952;51.938;15.480;2022-10-31T04:07:17;7.10;;;6.30;;
51925;SDS011;37952;51.938;15.480;2022-10-31T04:10:24;7.00;;;6.30;;
51925;SDS011;37952;51.938;15.480;2022-10-31T04:13:34;11.00;;;5.40;;
51925;SDS011;37952;51.938;15.480;2022-10-31T04:16:41;8.40;;;6.10;;
51925;SDS011;37952;51.938;15.480;2022-10-31T04:19:46;6.80;;;6.10;;
51925;SDS011;37952;51.938;15.480;2022-10-31T04:22:49;6.60;;;6.00;;
51925;SDS011;37952;51.938;15.480;2022-10-31T04:25:52;7.00;;;6.40;;
51925;SDS011;37952;51.938;15.480;2022-10-31T04:28:55;12.00;;;7.00;;
51925;SDS011;37952;51.938;15.480;2022-10-31T04:31:58;6.20;;;5.20;;
51925;SDS011;37952;51.938;15.480;2022-10-31T04:35:01;9.10;;;5.90;;
51925;SDS011;37952;51.938;15.480;2022-10-31T04:38:03;8.60;;;6.60;;
51925;SDS011;37952;51.938;15.480;2022-10-31T04:41:07;10.00;;;7.10;;
51925;SDS011;37952;51.938;15.480;2022-10-31T04:44:09;9.10;;;5.80;;
51925;SDS011;37952;51.938;15.480;2022-10-31T04:47:12;7.30;;;6.30;;
51925;SDS011;37952;51.938;15.480;2022-10-31T04:50:15;14.20;;;7.00;;
51925;SDS011;37952;51.938;15.480;2022-10-31T04:53:19;6.40;;;5.80;;
51925;SDS011;37952;51.938;15.480;2022-10-31T04:56:21;10.30;;;6.80;;
51925;SDS011;37952;51.938;15.480;2022-10-31T04:59:24;8.40;;;6.50;;
51925;SDS011;37952;51.938;15.480;2022-10-31T05:02:27;7.30;;;5.80;;
51925;SDS011;37952;51.938;15.480;2022-10-31T05:05:30;6.60;;;5.50;;
51925;SDS011;37952;51.938;15.480;2022-10-31T05:08:34;8.70;;;6.70;;
51925;SDS011;37952;51.938;15.480;2022-10-31T05:11:37;7.60;;;6.00;;
51925;SDS011;37952;51.938;15.480;2022-10-31T05:14:39;11.10;;;6.10;;
51925;SDS011;37952;51.938;15.480;2022-10-31T05:17:47;8.60;;;5.30;;
51925;SDS011;37952;51.938;15.480;2022-10-31T05:20:51;8.60;;;4.70;;
51925;SDS011;37952;51.938;15.480;2022-10-31T05:23:54;7.10;;;5.50;;
51925;SDS011;37952;51.938;15.480;2022-10-31T05:27:01;6.90;;;6.30;;
51925;SDS011;37952;51.938;15.480;2022-10-31T05:30:05;8.00;;;6.80;;
51925;SDS011;37952;51.938;15.480;2022-10-31T05:33:08;13.10;;;7.60;;
51925;SDS011;37952;51.938;15.480;2022-10-31T05:36:11;9.20;;;6.00;;
51925;SDS011;37952;51.938;15.480;2022-10-31T05:39:15;10.80;;;6.30;;
51925;SDS011;37952;51.938;15.480;2022-10-31T05:42:18;8.30;;;6.20;;
51925;SDS011;37952;51.938;15.480;2022-10-31T05:45:21;13.90;;;6.10;;
51925;SDS011;37952;51.938;15.480;2022-10-31T05:48:25;7.70;;;5.80;;
51925;SDS011;37952;51.938;15.480;2022-10-31T05:51:27;9.20;;;5.80;;
51925;SDS011;37952;51.938;15.480;2022-10-31T05:54:30;8.60;;;5.30;;
51925;SDS011;37952;51.938;15.480;2022-10-31T05:57:33;10.10;;;6.30;;
51925;SDS011;37952;51.938;15.480;2022-10-31T06:00:38;10.10;;;6.00;;
51925;SDS011;37952;51.938;15.480;2022-10-31T06:03:41;7.40;;;6.50;;
51925;SDS011;37952;51.938;15.480;2022-10-31T06:06:44;12.70;;;5.10;;
51925;SDS011;37952;51.938;15.480;2022-10-31T06:09:47;6.20;;;5.60;;
51925;SDS011;37952;51.938;15.480;2022-10-31T06:12:50;8.00;;;5.80;;
51925;SDS011;37952;51.938;15.480;2022-10-31T06:15:53;7.40;;;5.80;;
51925;SDS011;37952;51.938;15.480;2022-10-31T06:18:56;5.50;;;4.90;;
51925;SDS011;37952;51.938;15.480;2022-10-31T06:22:02;6.30;;;5.60;;
51925;SDS011;37952;51.938;15.480;2022-10-31T06:25:05;7.50;;;4.70;;
51925;SDS011;37952;51.938;15.480;2022-10-31T06:28:08;5.70;;;5.20;;
51925;SDS011;37952;51.938;15.480;2022-10-31T06:31:11;6.90;;;5.10;;
51925;SDS011;37952;51.938;15.480;2022-10-31T06:34:14;6.00;;;4.00;;
51925;SDS011;37952;51.938;15.480;2022-10-31T06:37:17;6.10;;;4.60;;
51925;SDS011;37952;51.938;15.480;2022-10-31T06:40:20;7.40;;;5.00;;
51925;SDS011;37952;51.938;15.480;2022-10-31T06:43:25;10.70;;;6.00;;
51925;SDS011;37952;51.938;15.480;2022-10-31T06:46:28;7.70;;;5.30;;
51925;SDS011;37952;51.938;15.480;2022-10-31T06:49:31;4.90;;;4.50;;
51925;SDS011;37952;51.938;15.480;2022-10-31T06:52:34;5.60;;;5.10;;
51925;SDS011;37952;51.938;15.480;2022-10-31T06:55:37;5.20;;;4.80;;
51925;SDS011;37952;51.938;15.480;2022-10-31T06:58:40;5.60;;;5.00;;
51925;SDS011;37952;51.938;15.480;2022-10-31T07:01:43;8.70;;;4.50;;
51925;SDS011;37952;51.938;15.480;2022-10-31T07:04:48;5.10;;;4.50;;
51925;SDS011;37952;51.938;15.480;2022-10-31T07:07:58;5.60;;;5.10;;
51925;SDS011;37952;51.938;15.480;2022-10-31T07:11:03;10.20;;;5.40;;
51925;SDS011;37952;51.938;15.480;2022-10-31T07:14:09;10.60;;;4.80;;
51925;SDS011;37952;51.938;15.480;2022-10-31T07:17:13;7.00;;;4.90;;
51925;SDS011;37952;51.938;15.480;2022-10-31T07:20:16;11.50;;;5.40;;
51925;SDS011;37952;51.938;15.480;2022-10-31T07:23:20;8.80;;;5.40;;
51925;SDS011;37952;51.938;15.480;2022-10-31T07:26:24;10.80;;;5.70;;
51925;SDS011;37952;51.938;15.480;2022-10-31T07:29:28;6.50;;;4.20;;
51925;SDS011;37952;51.938;15.480;2022-10-31T07:32:41;6.20;;;5.60;;
51925;SDS011;37952;51.938;15.480;2022-10-31T07:35:45;12.80;;;5.10;;
51925;SDS011;37952;51.938;15.480;2022-10-31T07:38:49;7.30;;;5.70;;
51925;SDS011;37952;51.938;15.480;2022-10-31T07:41:52;6.90;;;5.30;;
51925;SDS011;37952;51.938;15.480;2022-10-31T07:44:55;9.80;;;4.70;;
51925;SDS011;37952;51.938;15.480;2022-10-31T07:47:59;4.90;;;4.40;;
51925;SDS011;37952;51.938;15.480;2022-10-31T07:51:03;13.10;;;5.40;;
51925;SDS011;37952;51.938;15.480;2022-10-31T07:54:06;10.10;;;5.80;;
51925;SDS011;37952;51.938;15.480;2022-10-31T07:57:09;9.50;;;5.70;;
51925;SDS011;37952;51.938;15.480;2022-10-31T08:00:12;6.10;;;4.90;;
51925;SDS011;37952;51.938;15.480;2022-10-31T08:03:16;8.60;;;4.90;;
51925;SDS011;37952;51.938;15.480;2022-10-31T08:06:20;9.00;;;5.90;;
51925;SDS011;37952;51.938;15.480;2022-10-31T08:09:23;6.50;;;5.90;;
51925;SDS011;37952;51.938;15.480;2022-10-31T08:12:26;8.90;;;6.00;;
51925;SDS011;37952;51.938;15.480;2022-10-31T08:18:58;5.50;;;5.00;;
51925;SDS011;37952;51.938;15.480;2022-10-31T08:22:01;6.30;;;5.40;;
51925;SDS011;37952;51.938;15.480;2022-10-31T08:25:04;12.10;;;6.20;;
51925;SDS011;37952;51.938;15.480;2022-10-31T08:28:08;9.00;;;6.30;;
51925;SDS011;37952;51.938;15.480;2022-10-31T08:31:13;7.90;;;4.90;;
51925;SDS011;37952;51.938;15.480;2022-10-31T08:34:16;6.10;;;5.30;;
51925;SDS011;37952;51.938;15.480;2022-10-31T08:37:19;6.50;;;5.90;;
51925;SDS011;37952;51.938;15.480;2022-10-31T08:40:23;8.50;;;6.40;;
51925;SDS011;37952;51.938;15.480;2022-10-31T08:43:27;6.70;;;4.90;;
51925;SDS011;37952;51.938;15.480;2022-10-31T08:46:30;6.60;;;4.70;;
51925;SDS011;37952;51.938;15.480;2022-10-31T08:49:34;8.70;;;5.90;;
51925;SDS011;37952;51.938;15.480;2022-10-31T08:52:37;8.50;;;6.10;;
51925;SDS011;37952;51.938;15.480;2022-10-31T08:56:00;7.50;;;6.10;;
51925;SDS011;37952;51.938;15.480;2022-10-31T08:59:03;5.30;;;4.80;;
51925;SDS011;37952;51.938;15.480;2022-10-31T09:02:10;5.80;;;5.10;;
51925;SDS011;37952;51.938;15.480;2022-10-31T09:05:13;12.00;;;6.20;;
51925;SDS011;37952;51.938;15.480;2022-10-31T09:08:16;15.00;;;6.60;;
51925;SDS011;37952;51.938;15.480;2022-10-31T09:11:20;9.70;;;6.70;;
51925;SDS011;37952;51.938;15.480;2022-10-31T09:14:23;7.20;;;6.20;;
51925;SDS011;37952;51.938;15.480;2022-10-31T09:17:26;11.30;;;6.20;;
51925;SDS011;37952;51.938;15.480;2022-10-31T09:20:41;8.70;;;7.00;;
51925;SDS011;37952;51.938;15.480;2022-10-31T09:23:45;12.80;;;7.60;;
51925;SDS011;37952;51.938;15.480;2022-10-31T09:26:48;12.30;;;7.20;;
51925;SDS011;37952;51.938;15.480;2022-10-31T09:29:51;7.00;;;5.80;;
51925;SDS011;37952;51.938;15.480;2022-10-31T09:32:54;8.20;;;6.30;;
51925;SDS011;37952;51.938;15.480;2022-10-31T09:39:33;12.50;;;6.90;;
51925;SDS011;37952;51.938;15.480;2022-10-31T09:42:48;10.80;;;7.10;;
51925;SDS011;37952;51.938;15.480;2022-10-31T09:46:13;6.80;;;5.20;;
51925;SDS011;37952;51.938;15.480;2022-10-31T09:53:12;12.40;;;6.80;;
51925;SDS011;37952;51.938;15.480;2022-10-31T09:56:37;9.40;;;6.80;;
51925;SDS011;37952;51.938;15.480;2022-10-31T09:59:41;11.70;;;7.00;;
51925;SDS011;37952;51.938;15.480;2022-10-31T10:02:51;7.20;;;5.10;;
51925;SDS011;37952;51.938;15.480;2022-10-31T10:06:18;7.10;;;4.90;;
51925;SDS011;37952;51.938;15.480;2022-10-31T10:09:26;10.50;;;6.40;;
51925;SDS011;37952;51.938;15.480;2022-10-31T10:12:39;6.10;;;5.60;;
51925;SDS011;37952;51.938;15.480;2022-10-31T10:19:53;9.10;;;5.30;;
51925;SDS011;37952;51.938;15.480;2022-10-31T10:26:41;7.60;;;6.10;;
51925;SDS011;37952;51.938;15.480;2022-10-31T10:29:51;11.40;;;6.60;;
51925;SDS011;37952;51.938;15.480;2022-10-31T10:33:19;6.70;;;5.00;;
51925;SDS011;37952;51.938;15.480;2022-10-31T10:36:28;11.10;;;5.30;;
51925;SDS011;37952;51.938;15.480;2022-10-31T10:39:38;11.20;;;6.70;;
51925;SDS011;37952;51.938;15.480;2022-10-31T10:43:30;11.80;;;6.30;;
51925;SDS011;37952;51.938;15.480;2022-10-31T10:46:38;9.30;;;5.70;;
51925;SDS011;37952;51.938;15.480;2022-10-31T10:50:00;8.50;;;5.20;;
51925;SDS011;37952;51.938;15.480;2022-10-31T10:53:16;12.40;;;5.30;;
51925;SDS011;37952;51.938;15.480;2022-10-31T10:56:47;10.40;;;5.80;;
51925;SDS011;37952;51.938;15.480;2022-10-31T10:59:59;7.80;;;5.50;;
51925;SDS011;37952;51.938;15.480;2022-10-31T11:03:19;9.30;;;6.60;;
51925;SDS011;37952;51.938;15.480;2022-10-31T11:06:23;5.80;;;4.90;;
51925;SDS011;37952;51.938;15.480;2022-10-31T11:09:30;6.10;;;4.90;;
51925;SDS011;37952;51.938;15.480;2022-10-31T11:12:33;9.80;;;5.70;;
51925;SDS011;37952;51.938;15.480;2022-10-31T11:15:37;11.20;;;5.90;;
51925;SDS011;37952;51.938;15.480;2022-10-31T11:18:53;17.00;;;6.00;;
51925;SDS011;37952;51.938;15.480;2022-10-31T11:22:08;10.30;;;5.60;;
51925;SDS011;37952;51.938;15.480;2022-10-31T11:28:21;5.20;;;4.30;;
51925;SDS011;37952;51.938;15.480;2022-10-31T11:31:27;9.20;;;5.30;;
51925;SDS011;37952;51.938;15.480;2022-10-31T11:34:37;11.80;;;6.00;;
51925;SDS011;37952;51.938;15.480;2022-10-31T11:37:48;11.10;;;5.50;;
51925;SDS011;37952;51.938;15.480;2022-10-31T11:40:54;10.80;;;5.70;;
51925;SDS011;37952;51.938;15.480;2022-10-31T11:44:05;5.00;;;4.10;;
51925;SDS011;37952;51.938;15.480;2022-10-31T11:47:16;7.10;;;4.50;;
51925;SDS011;37952;51.938;15.480;2022-10-31T11:50:25;7.30;;;5.10;;
51925;SDS011;37952;51.938;15.480;2022-10-31T11:53:32;7.70;;;5.70;;
51925;SDS011;37952;51.938;15.480;2022-10-31T11:56:39;11.30;;;5.90;;
51925;SDS011;37952;51.938;15.480;2022-10-31T11:59:49;10.70;;;5.60;;
51925;SDS011;37952;51.938;15.480;2022-10-31T12:03:04;6.40;;;4.60;;
51925;SDS011;37952;51.938;15.480;2022-10-31T12:06:35;7.30;;;4.60;;
51925;SDS011;37952;51.938;15.480;2022-10-31T12:09:40;8.50;;;5.00;;
51925;SDS011;37952;51.938;15.480;2022-10-31T12:16:24;7.30;;;5.90;;
51925;SDS011;37952;51.938;15.480;2022-10-31T12:27:05;8.90;;;5.40;;
51925;SDS011;37952;51.938;15.480;2022-10-31T12:44:27;8.10;;;5.30;;
51925;SDS011;37952;51.938;15.480;2022-10-31T12:58:22;18.00;;;5.50;;
51925;SDS011;37952;51.938;15.480;2022-10-31T13:01:37;10.50;;;5.60;;
51925;SDS011;37952;51.938;15.480;2022-10-31T13:05:11;8.40;;;5.50;;
51925;SDS011;37952;51.938;15.480;2022-10-31T13:08:20;4.40;;;4.00;;
51925;SDS011;37952;51.938;15.480;2022-10-31T13:11:33;8.10;;;5.10;;
51925;SDS011;37952;51.938;15.480;2022-10-31T13:14:39;7.00;;;4.30;;
51925;SDS011;37952;51.938;15.480;2022-10-31T13:17:51;13.90;;;4.70;;
51925;SDS011;37952;51.938;15.480;2022-10-31T13:20:59;7.70;;;5.50;;
51925;SDS011;37952;51.938;15.480;2022-10-31T13:24:09;9.00;;;5.10;;
51925;SDS011;37952;51.938;15.480;2022-10-31T13:27:19;6.00;;;4.70;;
51925;SDS011;37952;51.938;15.480;2022-10-31T13:30:24;5.80;;;5.00;;
51925;SDS011;37952;51.938;15.480;2022-10-31T13:33:49;5.50;;;4.30;;
51925;SDS011;37952;51.938;15.480;2022-10-31T13:40:16;8.10;;;5.00;;
51925;SDS011;37952;51.938;15.480;2022-10-31T13:47:01;7.60;;;4.80;;
51925;SDS011;37952;51.938;15.480;2022-10-31T13:50:27;5.30;;;4.00;;
51925;SDS011;37952;51.938;15.480;2022-10-31T13:53:42;5.70;;;4.00;;
51925;SDS011;37952;51.938;15.480;2022-10-31T13:56:55;8.50;;;5.00;;
51925;SDS011;37952;51.938;15.480;2022-10-31T14:00:00;12.50;;;4.70;;
51925;SDS011;37952;51.938;15.480;2022-10-31T14:03:16;8.40;;;5.00;;
51925;SDS011;37952;51.938;15.480;2022-10-31T14:09:54;4.80;;;4.10;;
51925;SDS011;37952;51.938;15.480;2022-10-31T14:13:14;5.30;;;4.30;;
51925;SDS011;37952;51.938;15.480;2022-10-31T14:16:30;9.00;;;4.50;;
51925;SDS011;37952;51.938;15.480;2022-10-31T14:19:34;7.30;;;4.30;;
51925;SDS011;37952;51.938;15.480;2022-10-31T14:22:38;7.10;;;5.10;;
51925;SDS011;37952;51.938;15.480;2022-10-31T14:25:44;6.20;;;5.00;;
51925;SDS011;37952;51.938;15.480;2022-10-31T14:28:48;5.90;;;4.10;;
51925;SDS011;37952;51.938;15.480;2022-10-31T14:31:54;9.70;;;5.30;;
51925;SDS011;37952;51.938;15.480;2022-10-31T14:35:00;6.00;;;4.40;;
51925;SDS011;37952;51.938;15.480;2022-10-31T14:52:16;8.60;;;4.70;;
51925;SDS011;37952;51.938;15.480;2022-10-31T14:55:23;9.40;;;5.10;;
51925;SDS011;37952;51.938;15.480;2022-10-31T15:02:02;9.00;;;5.20;;
51925;SDS011;37952;51.938;15.480;2022-10-31T15:05:15;7.90;;;5.00;;
51925;SDS011;37952;51.938;15.480;2022-10-31T15:08:33;7.40;;;4.00;;
51925;SDS011;37952;51.938;15.480;2022-10-31T15:11:53;4.50;;;3.70;;
51925;SDS011;37952;51.938;15.480;2022-10-31T15:14:56;9.80;;;4.90;;
51925;SDS011;37952;51.938;15.480;2022-10-31T15:18:03;5.80;;;5.10;;
51925;SDS011;37952;51.938;15.480;2022-10-31T15:21:08;7.10;;;5.00;;
51925;SDS011;37952;51.938;15.480;2022-10-31T15:24:14;14.10;;;9.50;;
51925;SDS011;37952;51.938;15.480;2022-10-31T15:27:18;16.60;;;10.40;;
51925;SDS011;37952;51.938;15.480;2022-10-31T15:30:25;15.90;;;9.20;;
51925;SDS011;37952;51.938;15.480;2022-10-31T15:33:40;15.30;;;10.20;;
51925;SDS011;37952;51.938;15.480;2022-10-31T15:36:49;24.30;;;15.60;;
51925;SDS011;37952;51.938;15.480;2022-10-31T15:39:53;24.10;;;15.60;;
51925;SDS011;37952;51.938;15.480;2022-10-31T15:43:00;21.00;;;15.40;;
51925;SDS011;37952;51.938;15.480;2022-10-31T15:46:09;29.30;;;17.90;;
51925;SDS011;37952;51.938;15.480;2022-10-31T15:49:20;25.00;;;15.20;;
51925;SDS011;37952;51.938;15.480;2022-10-31T15:52:42;17.80;;;12.50;;
51925;SDS011;37952;51.938;15.480;2022-10-31T15:55:54;23.80;;;14.40;;
51925;SDS011;37952;51.938;15.480;2022-10-31T15:58:59;21.00;;;15.10;;
51925;SDS011;37952;51.938;15.480;2022-10-31T16:02:08;38.20;;;21.30;;
51925;SDS011;37952;51.938;15.480;2022-10-31T16:05:17;34.70;;;20.50;;
51925;SDS011;37952;51.938;15.480;2022-10-31T16:11:33;25.70;;;14.20;;
51925;SDS011;37952;51.938;15.480;2022-10-31T16:14:38;19.50;;;13.00;;
51925;SDS011;37952;51.938;15.480;2022-10-31T16:17:44;13.40;;;8.80;;
51925;SDS011;37952;51.938;15.480;2022-10-31T16:20:50;15.80;;;9.50;;
51925;SDS011;37952;51.938;15.480;2022-10-31T16:23:58;20.30;;;14.10;;
51925;SDS011;37952;51.938;15.480;2022-10-31T16:27:15;24.00;;;13.40;;
51925;SDS011;37952;51.938;15.480;2022-10-31T16:30:34;18.00;;;13.10;;
51925;SDS011;37952;51.938;15.480;2022-10-31T16:33:49;21.80;;;13.50;;
51925;SDS011;37952;51.938;15.480;2022-10-31T16:36:52;22.40;;;13.60;;
51925;SDS011;37952;51.938;15.480;2022-10-31T16:39:55;18.10;;;12.10;;
51925;SDS011;37952;51.938;15.480;2022-10-31T16:42:59;26.60;;;15.80;;
51925;SDS011;37952;51.938;15.480;2022-10-31T16:46:03;18.20;;;12.80;;
51925;SDS011;37952;51.938;15.480;2022-10-31T16:49:08;19.60;;;10.20;;
51925;SDS011;37952;51.938;15.480;2022-10-31T16:52:12;21.00;;;11.50;;
51925;SDS011;37952;51.938;15.480;2022-10-31T16:55:15;13.30;;;9.50;;
51925;SDS011;37952;51.938;15.480;2022-10-31T17:01:50;13.00;;;9.30;;
51925;SDS011;37952;51.938;15.480;2022-10-31T17:04:54;13.20;;;8.70;;
51925;SDS011;37952;51.938;15.480;2022-10-31T17:07:59;10.10;;;7.50;;
51925;SDS011;37952;51.938;15.480;2022-10-31T17:11:03;23.80;;;12.90;;
51925;SDS011;37952;51.938;15.480;2022-10-31T17:14:06;17.40;;;10.90;;
51925;SDS011;37952;51.938;15.480;2022-10-31T17:17:09;16.60;;;11.60;;
51925;SDS011;37952;51.938;15.480;2022-10-31T17:20:17;24.90;;;12.40;;
51925;SDS011;37952;51.938;15.480;2022-10-31T17:23:22;16.50;;;9.40;;
51925;SDS011;37952;51.938;15.480;2022-10-31T17:26:25;17.30;;;9.90;;
51925;SDS011;37952;51.938;15.480;2022-10-31T17:29:33;15.60;;;10.20;;
51925;SDS011;37952;51.938;15.480;2022-10-31T17:32:36;16.20;;;11.10;;
51925;SDS011;37952;51.938;15.480;2022-10-31T17:35:42;15.90;;;12.00;;
51925;SDS011;37952;51.938;15.480;2022-10-31T17:38:49;19.90;;;12.30;;
51925;SDS011;37952;51.938;15.480;2022-10-31T17:41:51;13.90;;;10.40;;
51925;SDS011;37952;51.938;15.480;2022-10-31T17:44:54;13.30;;;10.40;;
51925;SDS011;37952;51.938;15.480;2022-10-31T17:47:57;14.10;;;11.90;;
51925;SDS011;37952;51.938;15.480;2022-10-31T17:51:01;17.30;;;12.30;;
51925;SDS011;37952;51.938;15.480;2022-10-31T17:54:05;20.90;;;12.70;;
51925;SDS011;37952;51.938;15.480;2022-10-31T17:57:10;18.90;;;12.90;;
51925;SDS011;37952;51.938;15.480;2022-10-31T18:00:17;15.30;;;10.40;;
51925;SDS011;37952;51.938;15.480;2022-10-31T18:03:26;16.00;;;9.50;;
51925;SDS011;37952;51.938;15.480;2022-10-31T18:06:29;11.80;;;10.40;;
51925;SDS011;37952;51.938;15.480;2022-10-31T18:09:32;16.20;;;10.80;;
51925;SDS011;37952;51.938;15.480;2022-10-31T18:12:35;21.10;;;12.00;;
51925;SDS011;37952;51.938;15.480;2022-10-31T18:15:38;16.10;;;10.50;;
51925;SDS011;37952;51.938;15.480;2022-10-31T18:18:41;18.90;;;9.20;;
51925;SDS011;37952;51.938;15.480;2022-10-31T18:21:44;10.40;;;8.70;;
51925;SDS011;37952;51.938;15.480;2022-10-31T18:24:48;16.10;;;9.90;;
51925;SDS011;37952;51.938;15.480;2022-10-31T18:27:51;15.00;;;10.40;;
51925;SDS011;37952;51.938;15.480;2022-10-31T18:30:57;13.10;;;9.40;;
51925;SDS011;37952;51.938;15.480;2022-10-31T18:34:01;21.20;;;11.50;;
51925;SDS011;37952;51.938;15.480;2022-10-31T18:37:04;9.60;;;8.40;;
51925;SDS011;37952;51.938;15.480;2022-10-31T18:40:07;11.20;;;8.70;;
51925;SDS011;37952;51.938;15.480;2022-10-31T18:43:11;18.30;;;10.50;;
51925;SDS011;37952;51.938;15.480;2022-10-31T18:46:14;13.40;;;10.80;;
51925;SDS011;37952;51.938;15.480;2022-10-31T18:49:21;16.60;;;11.30;;
51925;SDS011;37952;51.938;15.480;2022-10-31T18:52:24;12.50;;;9.20;;
51925;SDS011;37952;51.938;15.480;2022-10-31T18:55:26;11.80;;;8.60;;
51925;SDS011;37952;51.938;15.480;2022-10-31T18:58:29;16.60;;;10.60;;
51925;SDS011;37952;51.938;15.480;2022-10-31T19:01:34;21.50;;;11.80;;
51925;SDS011;37952;51.938;15.480;2022-10-31T19:04:37;20.60;;;11.90;;
51925;SDS011;37952;51.938;15.480;2022-10-31T19:07:40;20.50;;;12.50;;
51925;SDS011;37952;51.938;15.480;2022-10-31T19:10:45;13.80;;;9.80;;
51925;SDS011;37952;51.938;15.480;2022-10-31T19:13:48;17.50;;;8.60;;
51925;SDS011;37952;51.938;15.480;2022-10-31T19:16:51;17.20;;;10.60;;
51925;SDS011;37952;51.938;15.480;2022-10-31T19:19:54;16.80;;;10.80;;
51925;SDS011;37952;51.938;15.480;2022-10-31T19:22:57;13.50;;;11.20;;
51925;SDS011;37952;51.938;15.480;2022-10-31T19:26:01;16.00;;;9.10;;
51925;SDS011;37952;51.938;15.480;2022-10-31T19:29:05;10.30;;;8.80;;
51925;SDS011;37952;51.938;15.480;2022-10-31T19:32:08;16.80;;;10.50;;
51925;SDS011;37952;51.938;15.480;2022-10-31T19:35:11;12.90;;;9.50;;
51925;SDS011;37952;51.938;15.480;2022-10-31T19:38:15;12.20;;;9.90;;
51925;SDS011;37952;51.938;15.480;2022-10-31T19:41:18;19.60;;;9.20;;
51925;SDS011;37952;51.938;15.480;2022-10-31T19:44:23;15.10;;;8.60;;
51925;SDS011;37952;51.938;15.480;2022-10-31T19:47:26;10.10;;;8.70;;
51925;SDS011;37952;51.938;15.480;2022-10-31T19:50:29;14.20;;;10.60;;
51925;SDS011;37952;51.938;15.480;2022-10-31T19:53:33;17.60;;;10.80;;
51925;SDS011;37952;51.938;15.480;2022-10-31T19:56:36;14.50;;;9.30;;
51925;SDS011;37952;51.938;15.480;2022-10-31T19:59:39;16.10;;;10.30;;
51925;SDS011;37952;51.938;15.480;2022-10-31T20:02:42;17.40;;;13.40;;
51925;SDS011;37952;51.938;15.480;2022-10-31T20:05:45;21.40;;;13.70;;
51925;SDS011;37952;51.938;15.480;2022-10-31T20:08:48;21.90;;;13.80;;
51925;SDS011;37952;51.938;15.480;2022-10-31T20:11:51;15.40;;;12.20;;